createdAt,value
2019-04-28T00:01:56.471Z,8.30
2019-04-28T00:06:01.157Z,8.30
2019-04-28T00:10:06.882Z,8.30
2019-04-28T00:14:12.004Z,8.30
2019-04-28T00:18:16.026Z,8.30
2019-04-28T00:22:21.121Z,8.20
2019-04-28T00:26:30.916Z,8.20
2019-04-28T00:30:34.330Z,8.20
2019-04-28T00:34:37.919Z,8.30
2019-04-28T00:38:41.786Z,8.30
2019-04-28T00:42:45.243Z,8.30
2019-04-28T00:46:48.983Z,8.30
2019-04-28T00:50:52.439Z,8.30
2019-04-28T00:54:55.891Z,8.30
2019-04-28T00:58:59.351Z,8.30
2019-04-28T01:03:03.741Z,8.30
2019-04-28T01:07:07.460Z,8.30
2019-04-28T01:11:11.759Z,8.30
2019-04-28T01:15:17.506Z,8.30
2019-04-28T01:19:25.542Z,8.30
2019-04-28T01:23:30.261Z,8.30
2019-04-28T01:27:35.466Z,8.30
2019-04-28T01:31:43.162Z,8.30
2019-04-28T01:35:46.607Z,8.30
2019-04-28T01:39:50.115Z,8.30
2019-04-28T01:43:53.581Z,8.40
2019-04-28T01:47:59.817Z,8.30
2019-04-28T01:52:02.632Z,8.30
2019-04-28T01:56:06.070Z,8.30
2019-04-28T02:00:21.808Z,8.20
2019-04-28T02:04:17.444Z,8.20
2019-04-28T02:08:21.172Z,8.20
2019-04-28T02:12:24.991Z,8.20
2019-04-28T02:16:29.622Z,8.20
2019-04-28T02:20:33.422Z,8.20
2019-04-28T02:24:37.421Z,8.20
2019-04-28T02:28:40.872Z,8.20
2019-04-28T02:32:44.329Z,8.10
2019-04-28T02:36:50.615Z,8.10
2019-04-28T02:40:53.032Z,8.10
2019-04-28T02:44:56.844Z,8.10
2019-04-28T02:49:00.955Z,8.10
2019-04-28T02:53:12.525Z,8.10
2019-04-28T02:57:15.986Z,8.10
2019-04-28T03:01:26.216Z,8.10
2019-04-28T03:05:24.673Z,8.10
2019-04-28T03:09:30.413Z,8.10
2019-04-28T03:13:33.302Z,8.10
2019-04-28T03:17:36.762Z,8.00
2019-04-28T03:21:41.619Z,8.00
2019-04-28T03:26:04.910Z,8.00
2019-04-28T03:30:26.698Z,8.00
2019-04-28T03:34:43.542Z,8.00
2019-04-28T03:38:46.703Z,8.00
2019-04-28T03:42:51.375Z,8.00
2019-04-28T03:46:56.149Z,8.00
2019-04-28T03:51:00.633Z,8.00
2019-04-28T03:55:05.518Z,8.00
2019-04-28T03:59:10.378Z,8.00
2019-04-28T04:03:13.997Z,8.00
2019-04-28T04:07:17.771Z,8.00
2019-04-28T04:11:22.860Z,8.00
2019-04-28T04:15:49.153Z,8.00
2019-04-28T04:19:50.450Z,8.00
2019-04-28T04:23:54.352Z,8.00
2019-04-28T04:28:00.366Z,8.00
2019-04-28T04:32:15.593Z,7.90
2019-04-28T04:36:10.739Z,7.90
2019-04-28T04:40:13.751Z,7.90
2019-04-28T04:44:17.219Z,7.90
2019-04-28T04:48:21.525Z,7.90
2019-04-28T04:52:25.563Z,7.90
2019-04-28T04:56:30.168Z,7.80
2019-04-28T05:00:40.424Z,7.80
2019-04-28T05:04:47.964Z,7.80
2019-04-28T05:08:51.778Z,7.80
2019-04-28T05:12:55.221Z,7.80
2019-04-28T05:17:00.669Z,7.80
2019-04-28T05:21:03.867Z,7.80
2019-04-28T05:25:11.943Z,7.80
2019-04-28T05:29:15.535Z,7.80
2019-04-28T05:33:32.084Z,7.60
2019-04-28T05:37:33.731Z,7.60
2019-04-28T05:41:37.178Z,7.60
2019-04-28T05:45:40.618Z,7.60
2019-04-28T05:49:54.351Z,7.60
2019-04-28T05:53:59.582Z,7.70
2019-04-28T05:58:10.839Z,7.60
2019-04-28T06:02:15.955Z,7.70
2019-04-28T06:06:21.043Z,7.60
2019-04-28T06:10:24.499Z,7.60
2019-04-28T06:14:30.053Z,7.50
2019-04-28T06:18:33.671Z,7.50
2019-04-28T06:22:37.117Z,7.60
2019-04-28T06:26:40.919Z,7.60
2019-04-28T06:30:45.916Z,7.50
2019-04-28T06:34:49.623Z,7.60
2019-04-28T06:38:53.070Z,7.60
2019-04-28T06:42:56.803Z,7.60
2019-04-28T06:47:00.254Z,7.70
2019-04-28T06:51:03.701Z,7.70
2019-04-28T06:55:07.162Z,7.70
2019-04-28T06:59:10.606Z,7.70
2019-04-28T07:03:22.987Z,7.80
2019-04-28T07:07:19.597Z,7.80
2019-04-28T07:11:23.046Z,7.80
2019-04-28T07:15:26.498Z,7.80
2019-04-28T07:19:29.971Z,7.80
2019-04-28T07:23:35.424Z,7.90
2019-04-28T07:27:38.899Z,7.90
2019-04-28T07:31:42.691Z,7.90
2019-04-28T07:35:46.504Z,7.90
2019-04-28T07:39:49.956Z,7.90
2019-04-28T07:43:53.401Z,8.00
2019-04-28T07:47:56.851Z,8.00
2019-04-28T07:52:07.627Z,8.00
2019-04-28T07:56:11.090Z,8.20
2019-04-28T08:00:16.511Z,8.20
2019-04-28T08:04:19.970Z,8.10
2019-04-28T08:08:23.684Z,8.10
2019-04-28T08:12:27.483Z,8.10
2019-04-28T08:16:31.006Z,8.10
2019-04-28T08:20:34.632Z,8.20
2019-04-28T08:24:38.114Z,8.20
2019-04-28T08:28:41.948Z,8.20
2019-04-28T08:32:47.040Z,8.20
2019-04-28T08:36:50.806Z,8.20
2019-04-28T08:40:54.535Z,8.10
2019-04-28T08:44:57.994Z,8.10
2019-04-28T08:49:01.450Z,8.10
2019-04-28T08:53:04.895Z,8.10
2019-04-28T08:57:08.355Z,8.20
2019-04-28T09:01:12.050Z,8.20
2019-04-28T09:05:15.880Z,8.20
2019-04-28T09:09:20.989Z,8.20
2019-04-28T09:13:24.448Z,8.20
2019-04-28T09:17:28.258Z,8.30
2019-04-28T09:21:32.063Z,8.50
2019-04-28T09:25:35.510Z,8.60
2019-04-28T09:29:39.038Z,8.80
2019-04-28T09:33:42.482Z,9.00
2019-04-28T09:37:45.938Z,9.20
2019-04-28T09:41:51.045Z,9.40
2019-04-28T09:46:02.667Z,9.60
2019-04-28T09:50:06.726Z,9.80
2019-04-28T09:54:10.253Z,9.80
2019-04-28T09:58:13.698Z,9.90
2019-04-28T10:02:17.158Z,9.90
2019-04-28T10:06:20.636Z,10.00
2019-04-28T10:10:24.093Z,9.90
2019-04-28T10:14:27.906Z,9.80
2019-04-28T10:18:31.365Z,10.40
2019-04-28T10:22:34.813Z,10.30
2019-04-28T10:26:38.262Z,10.20
2019-04-28T10:30:41.708Z,10.00
2019-04-28T10:34:54.711Z,9.90
2019-04-28T10:38:52.542Z,10.40
2019-04-28T10:42:56.075Z,10.70
2019-04-28T10:46:59.543Z,10.70
2019-04-28T10:51:03.383Z,10.70
2019-04-28T10:55:06.970Z,11.00
2019-04-28T10:59:10.451Z,11.30
2019-04-28T11:03:13.926Z,11.10
2019-04-28T11:07:17.462Z,10.80
2019-04-28T11:11:22.618Z,11.10
2019-04-28T11:15:27.766Z,11.20
2019-04-28T11:19:31.270Z,11.50
2019-04-28T11:23:34.858Z,11.50
2019-04-28T11:27:38.551Z,11.30
2019-04-28T11:31:42.152Z,10.80
2019-04-28T11:35:47.728Z,10.80
2019-04-28T11:39:52.366Z,11.10
2019-04-28T11:43:55.818Z,11.90
2019-04-28T11:47:59.336Z,11.90
2019-04-28T11:52:02.806Z,11.40
2019-04-28T11:56:06.591Z,11.10
2019-04-28T12:00:12.120Z,11.10
2019-04-28T12:04:16.831Z,11.00
2019-04-28T12:08:20.608Z,10.80
2019-04-28T12:12:25.702Z,10.70
2019-04-28T12:16:30.807Z,10.70
2019-04-28T12:20:34.268Z,10.60
2019-04-28T12:24:37.715Z,10.60
2019-04-28T12:28:41.525Z,10.80
2019-04-28T12:32:44.970Z,10.90
2019-04-28T12:36:48.421Z,10.90
2019-04-28T12:40:51.877Z,11.10
2019-04-28T12:44:55.327Z,11.20
2019-04-28T12:49:00.422Z,11.20
2019-04-28T12:53:04.204Z,11.60
2019-04-28T12:57:07.925Z,11.80
2019-04-28T13:01:18.958Z,11.50
2019-04-28T13:05:22.679Z,11.50
2019-04-28T13:09:26.134Z,11.60
2019-04-28T13:13:29.574Z,11.70
2019-04-28T13:17:33.031Z,11.90
2019-04-28T13:21:36.484Z,12.10
2019-04-28T13:25:40.274Z,12.50
2019-04-28T13:29:43.791Z,12.50
2019-04-28T13:33:55.969Z,12.30
2019-04-28T13:37:52.410Z,12.70
2019-04-28T13:41:55.940Z,13.00
2019-04-28T13:46:00.227Z,13.10
2019-04-28T13:50:09.499Z,13.00
2019-04-28T13:54:14.612Z,12.80
2019-04-28T13:58:25.702Z,12.90
2019-04-28T14:02:39.549Z,13.00
2019-04-28T14:06:44.634Z,13.30
2019-04-28T14:10:48.095Z,13.60
2019-04-28T14:14:51.853Z,13.90
2019-04-28T14:18:55.387Z,14.00
2019-04-28T14:22:58.891Z,14.30
2019-04-28T14:27:02.433Z,13.80
2019-04-28T14:31:06.185Z,13.80
2019-04-28T14:35:09.885Z,13.90
2019-04-28T14:39:13.403Z,13.90
2019-04-28T14:43:17.124Z,14.00
2019-04-28T14:47:20.578Z,13.90
2019-04-28T14:51:24.358Z,13.50
2019-04-28T14:55:28.277Z,12.70
2019-04-28T14:59:31.726Z,12.60
2019-04-28T15:03:39.924Z,13.30
2019-04-28T15:07:56.965Z,13.90
2019-04-28T15:12:02.398Z,14.30
2019-04-28T15:16:05.910Z,14.10
2019-04-28T15:20:09.582Z,14.00
2019-04-28T15:24:13.084Z,13.50
2019-04-28T15:28:16.914Z,13.70
2019-04-28T15:32:20.366Z,13.40
2019-04-28T15:36:24.127Z,13.80
2019-04-28T15:40:27.592Z,14.20
2019-04-28T15:44:31.356Z,14.20
2019-04-28T15:48:34.808Z,13.90
2019-04-28T15:52:38.326Z,13.20
2019-04-28T15:56:43.462Z,12.90
2019-04-28T16:00:46.975Z,13.00
2019-04-28T16:04:50.429Z,13.40
2019-04-28T16:08:53.870Z,13.30
2019-04-28T16:12:57.660Z,13.40
2019-04-28T16:17:01.095Z,13.70
2019-04-28T16:21:04.976Z,13.90
2019-04-28T16:25:08.495Z,14.00
2019-04-28T16:29:11.949Z,14.10
2019-04-28T16:33:15.465Z,14.20
2019-04-28T16:37:19.318Z,13.70
2019-04-28T16:41:24.339Z,13.40
2019-04-28T16:45:27.871Z,13.00
2019-04-28T16:49:31.391Z,13.00
2019-04-28T16:53:35.203Z,12.80
2019-04-28T16:57:40.561Z,12.80
2019-04-28T17:01:51.844Z,13.10
2019-04-28T17:05:55.283Z,13.30
2019-04-28T17:09:58.732Z,13.20
2019-04-28T17:14:02.192Z,12.90
2019-04-28T17:18:05.987Z,12.60
2019-04-28T17:22:09.819Z,12.40
2019-04-28T17:26:13.267Z,12.20
2019-04-28T17:30:17.114Z,12.20
2019-04-28T17:34:20.565Z,12.30
2019-04-28T17:38:24.403Z,12.30
2019-04-28T17:42:27.885Z,12.40
2019-04-28T17:46:31.630Z,12.50
2019-04-28T17:50:36.347Z,12.50
2019-04-28T17:54:39.793Z,12.50
2019-04-28T17:58:43.264Z,12.40
2019-04-28T18:03:00.308Z,12.20
2019-04-28T18:07:21.728Z,12.00
2019-04-28T18:11:25.407Z,11.80
2019-04-28T18:15:47.021Z,11.80
2019-04-28T18:19:50.594Z,11.80
2019-04-28T18:23:54.079Z,11.60
2019-04-28T18:27:57.862Z,11.40
2019-04-28T18:32:02.951Z,11.10
2019-04-28T18:36:14.031Z,11.00
2019-04-28T18:40:21.850Z,10.70
2019-04-28T18:44:25.294Z,10.50
2019-04-28T18:48:29.035Z,10.30
2019-04-28T18:52:32.567Z,10.20
2019-04-28T18:56:36.031Z,10.10
2019-04-28T19:00:41.417Z,9.90
2019-04-28T19:04:44.942Z,9.80
2019-04-28T19:09:01.814Z,9.80
2019-04-28T19:13:14.842Z,9.80
2019-04-28T19:17:32.236Z,9.70
2019-04-28T19:21:35.692Z,9.40
2019-04-28T19:25:39.499Z,9.30
2019-04-28T19:29:43.214Z,9.20
2019-04-28T19:33:46.974Z,9.20
2019-04-28T19:37:50.416Z,9.20
2019-04-28T19:41:53.890Z,9.10
2019-04-28T19:45:59.291Z,9.10
2019-04-28T19:50:01.980Z,9.10
2019-04-28T19:54:05.793Z,8.90
2019-04-28T19:58:29.086Z,8.80
2019-04-28T20:02:33.503Z,8.60
2019-04-28T20:06:37.216Z,8.50
2019-04-28T20:10:40.674Z,8.50
2019-04-28T20:14:44.132Z,8.60
2019-04-28T20:18:48.973Z,8.70
2019-04-28T20:22:52.995Z,8.70
2019-04-28T20:26:56.436Z,8.80
2019-04-28T20:30:59.914Z,8.80
2019-04-28T20:35:03.649Z,8.70
2019-04-28T20:39:21.625Z,8.30
2019-04-28T20:47:58.080Z,8.20
2019-04-28T20:52:01.531Z,8.00
2019-04-28T20:56:05.319Z,7.90
2019-04-28T21:00:08.985Z,7.80
2019-04-28T21:04:12.828Z,7.90
2019-04-28T21:08:16.295Z,7.90
2019-04-28T21:12:19.824Z,8.00
2019-04-28T21:16:23.284Z,8.10
2019-04-28T21:20:26.757Z,8.20
2019-04-28T21:24:30.474Z,8.00
2019-04-28T21:28:33.937Z,7.80
2019-04-28T21:32:37.397Z,7.60
2019-04-28T21:36:41.159Z,7.60
2019-04-28T21:40:45.728Z,7.80
2019-04-28T21:44:51.107Z,7.90
2019-04-28T21:48:56.475Z,7.90
2019-04-28T21:52:59.930Z,7.90
2019-04-28T21:57:03.387Z,8.00
2019-04-28T22:01:08.531Z,8.10
2019-04-28T22:05:12.115Z,8.10
2019-04-28T22:09:16.003Z,8.20
2019-04-28T22:13:19.459Z,8.20
2019-04-28T22:17:22.929Z,8.20
2019-04-28T22:21:26.387Z,8.20
2019-04-28T22:25:29.847Z,8.10
2019-04-28T22:29:33.292Z,8.00
2019-04-28T22:33:37.088Z,8.10
2019-04-28T22:37:40.898Z,8.00
2019-04-28T22:41:44.435Z,8.10
2019-04-28T22:45:48.063Z,8.10
2019-04-28T22:49:51.515Z,8.10
2019-04-28T22:53:55.341Z,8.10
2019-04-28T22:58:00.788Z,8.00
2019-04-28T23:02:15.226Z,8.10
2019-04-28T23:06:18.964Z,8.00
2019-04-28T23:10:22.408Z,8.00
2019-04-28T23:14:26.308Z,8.00
2019-04-28T23:18:29.837Z,7.90
2019-04-28T23:22:46.696Z,7.90
2019-04-28T23:26:43.686Z,8.00
2019-04-28T23:30:47.200Z,7.90
2019-04-28T23:34:50.655Z,8.00
2019-04-28T23:38:54.117Z,7.90
2019-04-28T23:42:59.557Z,7.80
2019-04-28T23:47:03.783Z,7.70
2019-04-28T23:51:11.679Z,7.70
2019-04-28T23:55:15.611Z,7.70
2019-04-28T23:59:19.080Z,7.60
